Time;durP1;ratioP1;P1;durP2;ratioP2;P2;SDS_P1;SDS_P2;PMS_P1;PMS_P2;Temp;Humidity;BMP_temperature;BMP_pressure;BME280_temperature;BME280_humidity;BME280_pressure;Samples;Min_cycle;Max_cycle;Signal;HPM_P1;HPM_P2
2024/02/04 00:03:32;;;;;;;12.70;3.50;;;;;;;7.51;91.69;99665.83;681828;1262;140103;-79
2024/02/04 00:18:35;;;;;;;11.30;3.30;;;;;;;7.43;92.76;99668.39;681651;1262;138293;-81
2024/02/04 00:33:40;;;;;;;10.80;3.00;;;;;;;7.37;93.70;99670.87;681710;1264;138528;-79
2024/02/04 00:48:43;;;;;;;12.20;3.80;;;;;;;7.36;93.21;99666.79;681907;1262;139173;-79
2024/02/04 01:03:47;;;;;;;9.60;3.20;;;;;;;7.40;92.21;99655.65;681705;1265;140714;-80
2024/02/04 01:18:50;;;;;;;19.50;2.90;;;;;;;7.37;91.47;99647.84;681905;1262;139194;-80
2024/02/04 01:33:54;;;;;;;14.90;3.50;;;;;;;7.25;92.04;99648.03;681770;1265;139173;-79
2024/02/04 01:48:59;;;;;;;14.10;2.50;;;;;;;7.15;91.59;99651.11;681946;1262;139611;-79
2024/02/04 02:04:05;;;;;;;14.50;2.40;;;;;;;7.11;90.35;99648.61;681651;1265;139350;-81
2024/02/04 02:19:27;;;;;;;9.50;3.20;;;;;;;7.02;90.15;99643.34;681906;1262;139501;-80
2024/02/04 02:34:31;;;;;;;9.30;2.90;;;;;;;6.89;90.59;99636.91;681612;1262;139905;-80
2024/02/04 02:49:42;;;;;;;10.50;2.00;;;;;;;6.73;88.89;99642.90;681513;1262;138094;-79
2024/02/04 03:04:46;;;;;;;9.90;2.40;;;;;;;6.72;87.77;99638.45;681835;1262;138935;-79
2024/02/04 03:19:56;;;;;;;10.40;2.40;;;;;;;6.57;87.99;99646.96;681764;1262;139658;-78
2024/02/04 03:35:01;;;;;;;10.70;3.10;;;;;;;6.68;86.52;99640.34;681512;1262;140173;-79
2024/02/04 03:50:05;;;;;;;9.40;2.50;;;;;;;6.73;84.54;99641.34;681819;1262;138925;-79
2024/02/04 04:05:12;;;;;;;11.20;2.40;;;;;;;6.71;83.55;99652.46;681634;1271;139845;-80
2024/02/04 04:20:16;;;;;;;9.50;2.00;;;;;;;6.50;84.22;99642.86;681660;1262;138976;-79
2024/02/04 04:35:20;;;;;;;11.00;3.80;;;;;;;6.60;83.35;99640.84;681661;1265;138672;-79
2024/02/04 04:50:23;;;;;;;19.40;4.20;;;;;;;6.66;81.98;99629.41;681710;1265;138323;-79
2024/02/04 05:05:27;;;;;;;12.60;2.60;;;;;;;6.65;81.71;99610.36;681765;1262;139352;-80
2024/02/04 05:20:32;;;;;;;13.50;2.60;;;;;;;6.60;81.49;99615.48;681669;1265;138970;-80
2024/02/04 05:35:37;;;;;;;14.80;4.00;;;;;;;6.54;81.96;99608.36;681701;1265;140270;-81
2024/02/04 05:50:41;;;;;;;18.40;2.60;;;;;;;6.53;82.48;99602.54;681694;1262;139543;-79
2024/02/04 06:05:45;;;;;;;16.20;4.30;;;;;;;6.58;83.25;99610.25;681587;1265;138460;-79
2024/02/04 06:20:50;;;;;;;7.40;3.20;;;;;;;6.59;83.80;99606.73;681832;1265;140537;-80
2024/02/04 06:35:55;;;;;;;15.30;4.50;;;;;;;6.69;83.86;99609.32;681645;1265;139219;-80
2024/02/04 06:50:59;;;;;;;17.30;3.20;;;;;;;6.73;83.51;99597.40;681869;1265;138851;-80
2024/02/04 07:06:04;;;;;;;13.30;3.00;;;;;;;6.73;83.43;99596.84;681792;1264;139905;-79
2024/02/04 07:21:07;;;;;;;17.10;5.20;;;;;;;6.76;82.86;99592.98;681662;1263;140220;-79
2024/02/04 07:36:20;;;;;;;11.50;4.20;;;;;;;6.77;83.07;99584.50;681887;1265;138492;-79
2024/02/04 07:51:25;;;;;;;19.10;6.90;;;;;;;6.78;84.11;99577.33;681927;1265;139189;-79
2024/02/04 08:06:29;;;;;;;16.30;4.30;;;;;;;6.89;84.08;99577.28;682079;1264;139205;-80
2024/02/04 08:21:33;;;;;;;15.80;4.80;;;;;;;6.93;83.69;99573.13;681869;1265;139844;-80
2024/02/04 08:36:37;;;;;;;14.20;6.20;;;;;;;6.88;83.48;99561.22;682064;1264;140255;-80
2024/02/04 08:51:41;;;;;;;20.20;8.20;;;;;;;7.17;82.03;99555.48;681806;1265;166986;-78
2024/02/04 09:06:45;;;;;;;19.40;5.10;;;;;;;7.28;81.57;99542.02;681993;1265;139784;-79
2024/02/04 09:21:50;;;;;;;21.30;7.20;;;;;;;7.17;81.96;99543.30;681861;1265;139589;-80
2024/02/04 09:36:53;;;;;;;20.00;6.50;;;;;;;7.28;82.38;99537.85;681930;1265;141670;-79
2024/02/04 09:52:04;;;;;;;21.00;7.80;;;;;;;7.49;82.87;99526.63;681853;1265;140250;-79
2024/02/04 10:07:07;;;;;;;33.40;11.10;;;;;;;7.46;83.33;99511.63;681917;1265;138836;-79
2024/02/04 10:22:16;;;;;;;34.90;10.90;;;;;;;7.68;83.77;99486.72;681941;1266;138739;-80
2024/02/04 10:37:21;;;;;;;14.70;5.30;;;;;;;7.63;85.07;99465.55;682071;1265;139639;-79
2024/02/04 10:52:27;;;;;;;21.70;5.20;;;;;;;7.65;85.04;99433.31;681992;1265;138695;-79
2024/02/04 11:07:36;;;;;;;11.00;5.20;;;;;;;7.72;85.24;99402.98;681929;1266;140114;-80
2024/02/04 11:23:05;;;;;;;17.70;6.60;;;;;;;7.93;85.55;99377.89;681935;1273;139243;-80
2024/02/04 11:38:14;;;;;;;14.00;4.60;;;;;;;7.94;86.70;99369.48;682122;1263;139728;-79
2024/02/04 11:53:18;;;;;;;14.70;4.70;;;;;;;7.81;88.74;99348.16;681900;1266;138475;-80
2024/02/04 12:08:23;;;;;;;20.20;8.00;;;;;;;7.87;89.91;99328.34;682125;1266;140566;-80
2024/02/04 12:23:29;;;;;;;29.10;13.60;;;;;;;7.86;90.35;99316.08;681475;1267;138705;-79
2024/02/04 12:38:33;;;;;;;27.80;9.20;;;;;;;8.03;89.17;99297.95;681829;1260;139567;-82
2024/02/04 12:53:38;;;;;;;21.60;6.90;;;;;;;8.14;87.63;99282.86;681988;1266;138826;-80
2024/02/04 13:08:41;;;;;;;14.20;4.90;;;;;;;8.09;86.86;99260.83;682074;1276;138331;-81
2024/02/04 13:23:45;;;;;;;21.10;8.20;;;;;;;8.27;85.45;99247.48;681971;1265;139859;-80
2024/02/04 13:38:49;;;;;;;14.50;6.90;;;;;;;8.46;84.51;99239.29;681863;1267;138687;-79
2024/02/04 13:53:55;;;;;;;22.40;7.80;;;;;;;8.47;84.23;99204.70;681830;1263;138310;-80
2024/02/04 14:08:59;;;;;;;19.00;7.50;;;;;;;8.54;83.44;99193.73;681919;1262;138988;-79
2024/02/04 14:24:03;;;;;;;73.50;29.00;;;;;;;8.57;83.21;99183.80;681830;1262;138505;-79
2024/02/04 14:39:08;;;;;;;39.30;15.30;;;;;;;8.49;82.90;99173.48;681968;1262;139752;-78
2024/02/04 14:54:12;;;;;;;30.10;12.70;;;;;;;8.38;82.45;99161.38;681933;1262;139186;-82
2024/02/04 15:09:19;;;;;;;36.70;16.60;;;;;;;8.26;83.06;99143.91;681834;1264;140002;-80
2024/02/04 15:24:24;;;;;;;36.60;13.10;;;;;;;8.23;83.87;99150.28;681855;1262;138842;-80
2024/02/04 15:39:29;;;;;;;24.80;8.80;;;;;;;8.13;85.09;99151.59;681822;1262;139737;-80
2024/02/04 15:54:35;;;;;;;27.30;10.60;;;;;;;8.05;86.58;99159.85;681851;1262;139968;-80
2024/02/04 16:09:40;;;;;;;34.00;12.90;;;;;;;7.79;90.21;99153.55;681750;1262;139594;-79
2024/02/04 16:24:46;;;;;;;36.90;13.40;;;;;;;7.65;91.99;99143.25;681863;1265;138598;-80
2024/02/04 16:39:51;;;;;;;28.80;9.90;;;;;;;7.70;92.07;99134.95;681974;1262;139204;-79
2024/02/04 16:54:55;;;;;;;33.80;14.20;;;;;;;7.61;93.59;99123.58;682163;1262;139229;-80
2024/02/04 17:09:59;;;;;;;56.80;20.00;;;;;;;7.53;94.82;99115.48;681933;1265;138756;-79
2024/02/04 17:25:08;;;;;;;37.50;15.80;;;;;;;7.30;97.37;99090.48;682133;1262;138871;-80
2024/02/04 17:40:13;;;;;;;23.00;8.10;;;;;;;7.29;99.02;99084.30;682175;1261;138793;-81
2024/02/04 17:55:17;;;;;;;48.40;15.80;;;;;;;7.22;100.00;99077.42;682074;1262;139845;-81
2024/02/04 18:10:21;;;;;;;18.90;6.40;;;;;;;7.17;100.00;99072.70;681648;1262;139158;-80
2024/02/04 18:25:25;;;;;;;20.40;9.00;;;;;;;7.29;100.00;99073.34;681748;1262;140045;-80
2024/02/04 18:40:30;;;;;;;21.50;7.70;;;;;;;7.25;100.00;99059.98;681720;1265;139440;-80
2024/02/04 18:55:38;;;;;;;24.80;10.00;;;;;;;7.28;100.00;99053.76;681954;1265;139307;-80
2024/02/04 19:10:42;;;;;;;18.90;8.90;;;;;;;7.17;100.00;99046.70;681588;1265;139984;-79
2024/02/04 19:25:45;;;;;;;19.20;9.50;;;;;;;7.12;100.00;99033.24;681899;1265;140513;-80
2024/02/04 19:40:50;;;;;;;15.90;7.50;;;;;;;7.23;100.00;99025.06;681690;1265;138524;-80
2024/02/04 19:55:54;;;;;;;25.30;9.50;;;;;;;7.25;100.00;99028.19;681843;1265;138951;-80
2024/02/04 20:11:00;;;;;;;23.20;8.70;;;;;;;7.26;100.00;99023.88;681755;1265;138742;-80
2024/02/04 20:26:04;;;;;;;20.70;7.80;;;;;;;7.20;100.00;99021.84;681860;1262;138497;-79
2024/02/04 20:41:09;;;;;;;18.70;7.80;;;;;;;7.18;100.00;99023.80;681689;1262;139292;-79
2024/02/04 20:56:16;;;;;;;10.40;5.20;;;;;;;7.27;100.00;99014.46;681652;1262;188822;-80
2024/02/04 21:11:21;;;;;;;12.50;5.20;;;;;;;7.17;100.00;98991.88;681625;1265;138736;-80
2024/02/04 21:26:25;;;;;;;15.40;6.00;;;;;;;7.12;100.00;98975.61;681845;1265;138668;-82
2024/02/04 21:41:29;;;;;;;15.90;4.70;;;;;;;7.11;100.00;98958.13;681711;1262;138620;-80
2024/02/04 21:56:34;;;;;;;18.30;7.70;;;;;;;7.05;100.00;98944.14;681815;1262;139024;-80
2024/02/04 22:11:42;;;;;;;13.50;5.10;;;;;;;7.12;100.00;98933.61;681700;1265;139574;-80
2024/02/04 22:26:46;;;;;;;22.10;7.10;;;;;;;7.14;100.00;98930.55;681787;1265;138758;-79
2024/02/04 22:41:52;;;;;;;13.70;6.00;;;;;;;7.22;100.00;98918.84;681679;1265;139924;-81
2024/02/04 22:56:55;;;;;;;10.90;4.70;;;;;;;7.15;100.00;98918.45;681843;1265;140418;-80
2024/02/04 23:12:00;;;;;;;5.90;3.30;;;;;;;7.30;100.00;98901.38;681722;1265;138878;-80
2024/02/04 23:27:04;;;;;;;8.00;4.00;;;;;;;7.26;100.00;98889.43;681880;1265;139220;-80
2024/02/04 23:42:09;;;;;;;9.60;4.70;;;;;;;7.35;100.00;98879.90;681793;1265;139240;-81
2024/02/04 23:57:15;;;;;;;13.00;4.30;;;;;;;7.22;100.00;98868.31;681812;1265;138531;-81
